sensor_id;sensor_type;location;lat;lon;timestamp;temperature;humidity
36790;DHT22;22740;52.182;8.780;2023-03-01T00:04:26;-1.50;99.90
36790;DHT22;22740;52.182;8.780;2023-03-01T00:10:29;-1.60;99.90
36790;DHT22;22740;52.182;8.780;2023-03-01T00:16:33;-1.50;99.90
36790;DHT22;22740;52.182;8.780;2023-03-01T00:22:36;-1.60;99.90
36790;DHT22;22740;52.182;8.780;2023-03-01T00:28:38;-1.70;99.90
36790;DHT22;22740;52.182;8.780;2023-03-01T00:34:40;-1.70;99.90
36790;DHT22;22740;52.182;8.780;2023-03-01T00:40:42;-1.70;99.90
36790;DHT22;22740;52.182;8.780;2023-03-01T00:46:43;-1.70;99.90
36790;DHT22;22740;52.182;8.780;2023-03-01T00:52:45;-1.60;99.90
36790;DHT22;22740;52.182;8.780;2023-03-01T00:58:47;-1.70;99.90
36790;DHT22;22740;52.182;8.780;2023-03-01T01:04:49;-1.70;99.90
36790;DHT22;22740;52.182;8.780;2023-03-01T01:10:51;-1.90;99.90
36790;DHT22;22740;52.182;8.780;2023-03-01T01:16:53;-1.80;99.90
36790;DHT22;22740;52.182;8.780;2023-03-01T01:22:55;-1.90;99.90
36790;DHT22;22740;52.182;8.780;2023-03-01T01:28:57;-1.90;99.90
36790;DHT22;22740;52.182;8.780;2023-03-01T01:34:59;-1.90;99.90
36790;DHT22;22740;52.182;8.780;2023-03-01T01:41:01;-2.00;99.90
36790;DHT22;22740;52.182;8.780;2023-03-01T01:47:04;-2.00;99.90
36790;DHT22;22740;52.182;8.780;2023-03-01T01:53:15;-2.00;99.90
36790;DHT22;22740;52.182;8.780;2023-03-01T01:59:18;-2.00;99.90
36790;DHT22;22740;52.182;8.780;2023-03-01T02:11:47;-2.10;99.90
36790;DHT22;22740;52.182;8.780;2023-03-01T02:17:49;-2.00;99.90
36790;DHT22;22740;52.182;8.780;2023-03-01T02:23:53;-2.00;99.90
36790;DHT22;22740;52.182;8.780;2023-03-01T02:29:57;-2.10;99.90
36790;DHT22;22740;52.182;8.780;2023-03-01T02:36:19;-2.10;99.90
36790;DHT22;22740;52.182;8.780;2023-03-01T02:42:26;-2.20;99.90
36790;DHT22;22740;52.182;8.780;2023-03-01T02:48:28;-2.20;99.90
36790;DHT22;22740;52.182;8.780;2023-03-01T02:55:00;-2.20;99.90
36790;DHT22;22740;52.182;8.780;2023-03-01T03:01:03;-2.10;99.90
36790;DHT22;22740;52.182;8.780;2023-03-01T03:07:05;-2.00;99.90
36790;DHT22;22740;52.182;8.780;2023-03-01T03:13:10;-2.00;99.90
36790;DHT22;22740;52.182;8.780;2023-03-01T03:19:12;-2.00;99.90
36790;DHT22;22740;52.182;8.780;2023-03-01T03:25:16;-2.00;99.90
36790;DHT22;22740;52.182;8.780;2023-03-01T03:31:18;-2.10;99.90
36790;DHT22;22740;52.182;8.780;2023-03-01T03:37:20;-2.00;99.90
36790;DHT22;22740;52.182;8.780;2023-03-01T03:43:41;-2.10;99.90
36790;DHT22;22740;52.182;8.780;2023-03-01T03:49:44;-2.20;99.90
36790;DHT22;22740;52.182;8.780;2023-03-01T03:55:46;-2.30;99.90
36790;DHT22;22740;52.182;8.780;2023-03-01T04:01:50;-2.40;99.90
36790;DHT22;22740;52.182;8.780;2023-03-01T04:07:53;-2.30;99.90
36790;DHT22;22740;52.182;8.780;2023-03-01T04:14:03;-2.50;99.90
36790;DHT22;22740;52.182;8.780;2023-03-01T04:20:06;-2.60;99.90
36790;DHT22;22740;52.182;8.780;2023-03-01T04:26:09;-2.60;99.90
36790;DHT22;22740;52.182;8.780;2023-03-01T04:32:11;-2.70;99.90
36790;DHT22;22740;52.182;8.780;2023-03-01T04:38:19;-2.70;99.90
36790;DHT22;22740;52.182;8.780;2023-03-01T04:44:21;-2.70;99.90
36790;DHT22;22740;52.182;8.780;2023-03-01T04:50:22;-2.60;99.90
36790;DHT22;22740;52.182;8.780;2023-03-01T04:56:25;-2.70;99.90
36790;DHT22;22740;52.182;8.780;2023-03-01T05:02:27;-2.70;99.90
36790;DHT22;22740;52.182;8.780;2023-03-01T05:08:28;-2.60;99.90
36790;DHT22;22740;52.182;8.780;2023-03-01T05:14:30;-2.50;99.90
36790;DHT22;22740;52.182;8.780;2023-03-01T05:20:32;-2.50;99.90
36790;DHT22;22740;52.182;8.780;2023-03-01T05:26:37;-2.50;99.90
36790;DHT22;22740;52.182;8.780;2023-03-01T05:32:47;-2.50;99.90
36790;DHT22;22740;52.182;8.780;2023-03-01T05:38:49;-2.50;99.90
36790;DHT22;22740;52.182;8.780;2023-03-01T05:44:51;-2.50;99.90
36790;DHT22;22740;52.182;8.780;2023-03-01T05:50:53;-2.70;99.90
36790;DHT22;22740;52.182;8.780;2023-03-01T05:56:54;-2.80;99.90
36790;DHT22;22740;52.182;8.780;2023-03-01T06:02:58;-2.80;99.90
36790;DHT22;22740;52.182;8.780;2023-03-01T06:09:00;-2.90;99.90
36790;DHT22;22740;52.182;8.780;2023-03-01T06:15:03;-2.90;99.90
36790;DHT22;22740;52.182;8.780;2023-03-01T06:21:07;-2.90;99.90
36790;DHT22;22740;52.182;8.780;2023-03-01T06:27:09;-3.00;99.90
36790;DHT22;22740;52.182;8.780;2023-03-01T06:33:11;-2.90;99.90
36790;DHT22;22740;52.182;8.780;2023-03-01T06:39:13;-2.90;99.90
36790;DHT22;22740;52.182;8.780;2023-03-01T06:45:15;-2.80;99.90
36790;DHT22;22740;52.182;8.780;2023-03-01T06:51:17;-2.60;99.90
36790;DHT22;22740;52.182;8.780;2023-03-01T06:57:19;-2.40;99.90
36790;DHT22;22740;52.182;8.780;2023-03-01T07:03:21;-2.20;99.90
36790;DHT22;22740;52.182;8.780;2023-03-01T07:09:24;-1.90;99.90
36790;DHT22;22740;52.182;8.780;2023-03-01T07:15:27;-1.50;99.90
36790;DHT22;22740;52.182;8.780;2023-03-01T07:21:28;-1.40;99.90
36790;DHT22;22740;52.182;8.780;2023-03-01T07:27:30;-1.40;99.90
36790;DHT22;22740;52.182;8.780;2023-03-01T07:33:32;-1.30;99.90
36790;DHT22;22740;52.182;8.780;2023-03-01T07:39:34;-1.10;99.90
36790;DHT22;22740;52.182;8.780;2023-03-01T07:45:36;-0.70;99.90
36790;DHT22;22740;52.182;8.780;2023-03-01T07:51:38;-0.40;99.90
36790;DHT22;22740;52.182;8.780;2023-03-01T07:57:39;-0.30;99.90
36790;DHT22;22740;52.182;8.780;2023-03-01T08:03:42;0.00;99.90
36790;DHT22;22740;52.182;8.780;2023-03-01T08:09:45;0.30;99.90
36790;DHT22;22740;52.182;8.780;2023-03-01T08:15:46;0.20;99.90
36790;DHT22;22740;52.182;8.780;2023-03-01T08:21:48;0.50;99.90
36790;DHT22;22740;52.182;8.780;2023-03-01T08:27:50;0.90;99.90
36790;DHT22;22740;52.182;8.780;2023-03-01T08:33:54;0.70;99.90
36790;DHT22;22740;52.182;8.780;2023-03-01T08:39:57;1.20;99.90
36790;DHT22;22740;52.182;8.780;2023-03-01T08:45:59;1.30;99.90
36790;DHT22;22740;52.182;8.780;2023-03-01T08:52:02;1.30;99.90
36790;DHT22;22740;52.182;8.780;2023-03-01T08:58:04;1.80;99.90
36790;DHT22;22740;52.182;8.780;2023-03-01T09:04:06;2.00;99.90
36790;DHT22;22740;52.182;8.780;2023-03-01T09:10:08;1.90;99.90
36790;DHT22;22740;52.182;8.780;2023-03-01T09:16:12;2.40;99.90
36790;DHT22;22740;52.182;8.780;2023-03-01T09:22:14;2.40;99.90
36790;DHT22;22740;52.182;8.780;2023-03-01T09:28:16;2.30;99.90
36790;DHT22;22740;52.182;8.780;2023-03-01T09:34:31;2.50;99.90
36790;DHT22;22740;52.182;8.780;2023-03-01T09:40:32;2.70;99.90
36790;DHT22;22740;52.182;8.780;2023-03-01T09:46:40;2.80;99.90
36790;DHT22;22740;52.182;8.780;2023-03-01T09:52:47;3.00;99.90
36790;DHT22;22740;52.182;8.780;2023-03-01T10:05:21;3.20;99.90
36790;DHT22;22740;52.182;8.780;2023-03-01T10:11:30;3.30;99.90
36790;DHT22;22740;52.182;8.780;2023-03-01T10:23:40;3.40;99.90
36790;DHT22;22740;52.182;8.780;2023-03-01T10:36:03;4.00;99.90
36790;DHT22;22740;52.182;8.780;2023-03-01T10:42:18;3.90;99.90
36790;DHT22;22740;52.182;8.780;2023-03-01T10:48:25;4.10;99.90
36790;DHT22;22740;52.182;8.780;2023-03-01T10:54:32;4.10;99.90
36790;DHT22;22740;52.182;8.780;2023-03-01T11:00:52;4.30;99.90
36790;DHT22;22740;52.182;8.780;2023-03-01T11:06:59;4.50;99.90
36790;DHT22;22740;52.182;8.780;2023-03-01T11:13:16;4.60;99.90
36790;DHT22;22740;52.182;8.780;2023-03-01T11:19:20;4.80;99.90
36790;DHT22;22740;52.182;8.780;2023-03-01T11:25:37;4.50;99.90
36790;DHT22;22740;52.182;8.780;2023-03-01T11:31:41;4.70;99.90
36790;DHT22;22740;52.182;8.780;2023-03-01T11:38:34;5.00;99.90
36790;DHT22;22740;52.182;8.780;2023-03-01T11:44:37;5.20;99.90
36790;DHT22;22740;52.182;8.780;2023-03-01T11:50:45;4.90;99.90
36790;DHT22;22740;52.182;8.780;2023-03-01T11:56:57;5.20;99.90
36790;DHT22;22740;52.182;8.780;2023-03-01T12:35:03;5.80;99.90
36790;DHT22;22740;52.182;8.780;2023-03-01T12:53:53;6.10;99.90
36790;DHT22;22740;52.182;8.780;2023-03-01T13:00:10;5.70;99.90
36790;DHT22;22740;52.182;8.780;2023-03-01T13:06:31;6.00;99.90
36790;DHT22;22740;52.182;8.780;2023-03-01T13:12:57;5.90;99.90
36790;DHT22;22740;52.182;8.780;2023-03-01T13:19:21;5.90;99.90
36790;DHT22;22740;52.182;8.780;2023-03-01T13:25:24;5.90;99.90
36790;DHT22;22740;52.182;8.780;2023-03-01T13:37:40;5.90;99.90
36790;DHT22;22740;52.182;8.780;2023-03-01T13:43:44;5.80;99.90
36790;DHT22;22740;52.182;8.780;2023-03-01T13:49:58;5.80;99.90
36790;DHT22;22740;52.182;8.780;2023-03-01T13:56:24;5.80;99.90
36790;DHT22;22740;52.182;8.780;2023-03-01T14:02:25;5.80;99.90
36790;DHT22;22740;52.182;8.780;2023-03-01T14:08:30;5.70;99.90
36790;DHT22;22740;52.182;8.780;2023-03-01T14:14:34;5.60;99.90
36790;DHT22;22740;52.182;8.780;2023-03-01T14:20:42;5.50;99.90
36790;DHT22;22740;52.182;8.780;2023-03-01T14:26:44;5.70;99.90
36790;DHT22;22740;52.182;8.780;2023-03-01T14:32:57;5.60;99.90
36790;DHT22;22740;52.182;8.780;2023-03-01T14:38:59;5.60;99.90
36790;DHT22;22740;52.182;8.780;2023-03-01T14:45:12;5.50;99.90
36790;DHT22;22740;52.182;8.780;2023-03-01T14:51:15;5.40;99.90
36790;DHT22;22740;52.182;8.780;2023-03-01T14:57:23;5.40;99.90
36790;DHT22;22740;52.182;8.780;2023-03-01T15:09:28;5.30;99.90
36790;DHT22;22740;52.182;8.780;2023-03-01T15:15:32;5.40;99.90
36790;DHT22;22740;52.182;8.780;2023-03-01T15:21:38;5.50;99.90
36790;DHT22;22740;52.182;8.780;2023-03-01T15:27:45;5.50;99.90
36790;DHT22;22740;52.182;8.780;2023-03-01T15:33:48;5.40;99.90
36790;DHT22;22740;52.182;8.780;2023-03-01T15:39:55;5.20;99.90
36790;DHT22;22740;52.182;8.780;2023-03-01T15:45:57;5.30;99.90
36790;DHT22;22740;52.182;8.780;2023-03-01T15:51:59;5.20;99.90
36790;DHT22;22740;52.182;8.780;2023-03-01T15:58:10;5.20;99.90
36790;DHT22;22740;52.182;8.780;2023-03-01T16:04:14;5.10;99.90
36790;DHT22;22740;52.182;8.780;2023-03-01T16:10:33;5.20;99.90
36790;DHT22;22740;52.182;8.780;2023-03-01T16:16:35;5.20;99.90
36790;DHT22;22740;52.182;8.780;2023-03-01T16:22:37;5.10;99.90
36790;DHT22;22740;52.182;8.780;2023-03-01T16:28:40;5.00;99.90
36790;DHT22;22740;52.182;8.780;2023-03-01T16:34:42;5.00;99.90
36790;DHT22;22740;52.182;8.780;2023-03-01T16:40:48;4.80;99.90
36790;DHT22;22740;52.182;8.780;2023-03-01T16:46:51;4.70;99.90
36790;DHT22;22740;52.182;8.780;2023-03-01T16:52:52;4.60;99.90
36790;DHT22;22740;52.182;8.780;2023-03-01T16:58:54;4.40;99.90
36790;DHT22;22740;52.182;8.780;2023-03-01T17:04:56;4.20;99.90
36790;DHT22;22740;52.182;8.780;2023-03-01T17:11:03;4.10;99.90
36790;DHT22;22740;52.182;8.780;2023-03-01T17:17:05;4.00;99.90
36790;DHT22;22740;52.182;8.780;2023-03-01T17:23:07;4.00;99.90
36790;DHT22;22740;52.182;8.780;2023-03-01T17:29:09;3.90;99.90
36790;DHT22;22740;52.182;8.780;2023-03-01T17:35:11;3.80;99.90
36790;DHT22;22740;52.182;8.780;2023-03-01T17:41:13;3.80;99.90
36790;DHT22;22740;52.182;8.780;2023-03-01T17:47:18;3.80;99.90
36790;DHT22;22740;52.182;8.780;2023-03-01T17:53:20;3.80;99.90
36790;DHT22;22740;52.182;8.780;2023-03-01T17:59:21;3.70;99.90
36790;DHT22;22740;52.182;8.780;2023-03-01T18:05:24;3.60;99.90
36790;DHT22;22740;52.182;8.780;2023-03-01T18:11:26;3.40;99.90
36790;DHT22;22740;52.182;8.780;2023-03-01T18:17:28;3.20;99.90
36790;DHT22;22740;52.182;8.780;2023-03-01T18:23:31;3.00;99.90
36790;DHT22;22740;52.182;8.780;2023-03-01T18:29:35;2.80;99.90
36790;DHT22;22740;52.182;8.780;2023-03-01T18:35:38;2.70;99.90
36790;DHT22;22740;52.182;8.780;2023-03-01T18:41:40;2.60;99.90
36790;DHT22;22740;52.182;8.780;2023-03-01T18:47:41;2.60;99.90
36790;DHT22;22740;52.182;8.780;2023-03-01T18:53:43;2.50;99.90
36790;DHT22;22740;52.182;8.780;2023-03-01T18:59:45;2.40;99.90
36790;DHT22;22740;52.182;8.780;2023-03-01T19:05:47;2.40;99.90
36790;DHT22;22740;52.182;8.780;2023-03-01T19:11:48;2.60;99.90
36790;DHT22;22740;52.182;8.780;2023-03-01T19:17:50;2.80;99.90
36790;DHT22;22740;52.182;8.780;2023-03-01T19:23:56;2.90;99.90
36790;DHT22;22740;52.182;8.780;2023-03-01T19:29:58;2.90;99.90
36790;DHT22;22740;52.182;8.780;2023-03-01T19:36:01;3.10;99.90
36790;DHT22;22740;52.182;8.780;2023-03-01T19:42:03;3.10;99.90
36790;DHT22;22740;52.182;8.780;2023-03-01T19:48:05;3.10;99.90
36790;DHT22;22740;52.182;8.780;2023-03-01T19:54:08;3.00;99.90
36790;DHT22;22740;52.182;8.780;2023-03-01T20:00:13;3.00;99.90
36790;DHT22;22740;52.182;8.780;2023-03-01T20:06:18;2.90;99.90
36790;DHT22;22740;52.182;8.780;2023-03-01T20:12:21;2.70;99.90
36790;DHT22;22740;52.182;8.780;2023-03-01T20:18:24;2.40;99.90
36790;DHT22;22740;52.182;8.780;2023-03-01T20:24:26;2.00;99.90
36790;DHT22;22740;52.182;8.780;2023-03-01T20:30:28;1.60;99.90
36790;DHT22;22740;52.182;8.780;2023-03-01T20:36:30;1.20;99.90
36790;DHT22;22740;52.182;8.780;2023-03-01T20:42:32;1.00;99.90
36790;DHT22;22740;52.182;8.780;2023-03-01T20:48:34;0.80;99.90
36790;DHT22;22740;52.182;8.780;2023-03-01T20:54:36;0.80;99.90
36790;DHT22;22740;52.182;8.780;2023-03-01T21:00:38;1.20;99.90
36790;DHT22;22740;52.182;8.780;2023-03-01T21:06:40;1.10;99.90
36790;DHT22;22740;52.182;8.780;2023-03-01T21:12:43;0.90;99.90
36790;DHT22;22740;52.182;8.780;2023-03-01T21:18:46;0.80;99.90
36790;DHT22;22740;52.182;8.780;2023-03-01T21:24:50;0.80;99.90
36790;DHT22;22740;52.182;8.780;2023-03-01T21:30:52;1.20;99.90
36790;DHT22;22740;52.182;8.780;2023-03-01T21:36:54;0.90;99.90
36790;DHT22;22740;52.182;8.780;2023-03-01T21:42:56;0.60;99.90
36790;DHT22;22740;52.182;8.780;2023-03-01T21:48:58;0.40;99.90
36790;DHT22;22740;52.182;8.780;2023-03-01T21:55:00;0.30;99.90
36790;DHT22;22740;52.182;8.780;2023-03-01T22:01:15;0.30;99.90
36790;DHT22;22740;52.182;8.780;2023-03-01T22:07:18;0.10;99.90
36790;DHT22;22740;52.182;8.780;2023-03-01T22:13:20;0.10;99.90
36790;DHT22;22740;52.182;8.780;2023-03-01T22:19:22;0.30;99.90
36790;DHT22;22740;52.182;8.780;2023-03-01T22:25:25;0.20;99.90
36790;DHT22;22740;52.182;8.780;2023-03-01T22:31:30;0.20;99.90
36790;DHT22;22740;52.182;8.780;2023-03-01T22:37:33;0.30;99.90
36790;DHT22;22740;52.182;8.780;2023-03-01T22:43:35;0.20;99.90
36790;DHT22;22740;52.182;8.780;2023-03-01T22:49:37;0.00;99.90
36790;DHT22;22740;52.182;8.780;2023-03-01T22:55:39;-0.10;99.90
36790;DHT22;22740;52.182;8.780;2023-03-01T23:01:42;-0.10;99.90
36790;DHT22;22740;52.182;8.780;2023-03-01T23:07:48;0.40;99.90
36790;DHT22;22740;52.182;8.780;2023-03-01T23:13:50;0.40;99.90
36790;DHT22;22740;52.182;8.780;2023-03-01T23:19:53;0.10;99.90
36790;DHT22;22740;52.182;8.780;2023-03-01T23:25:58;0.00;99.90
36790;DHT22;22740;52.182;8.780;2023-03-01T23:32:00;-0.10;99.90
36790;DHT22;22740;52.182;8.780;2023-03-01T23:38:02;-0.20;99.90
36790;DHT22;22740;52.182;8.780;2023-03-01T23:44:05;-0.20;99.90
36790;DHT22;22740;52.182;8.780;2023-03-01T23:50:07;-0.20;99.90
36790;DHT22;22740;52.182;8.780;2023-03-01T23:56:11;-0.10;99.90
